sensor_id;sensor_type;location;lat;lon;timestamp;pressure;altitude;pressure_sealevel;temperature;humidity
41254;BME280;26987;59.928;30.306;2023-07-29T00:00:07;100009.47;;;13.52;99.48
41254;BME280;26987;59.928;30.306;2023-07-29T00:02:38;99996.72;;;13.47;99.77
41254;BME280;26987;59.928;30.306;2023-07-29T00:05:08;100002.69;;;13.49;99.49
41254;BME280;26987;59.928;30.306;2023-07-29T00:07:36;99993.44;;;13.45;99.33
41254;BME280;26987;59.928;30.306;2023-07-29T00:10:05;100009.94;;;13.49;99.75
41254;BME280;26987;59.928;30.306;2023-07-29T00:12:33;100006.91;;;13.45;100.00
41254;BME280;26987;59.928;30.306;2023-07-29T00:15:00;100002.00;;;13.42;100.00
41254;BME280;26987;59.928;30.306;2023-07-29T00:17:28;100003.06;;;13.41;100.00
41254;BME280;26987;59.928;30.306;2023-07-29T00:19:56;100004.50;;;13.32;100.00
41254;BME280;26987;59.928;30.306;2023-07-29T00:22:25;100010.47;;;13.34;100.00
41254;BME280;26987;59.928;30.306;2023-07-29T00:24:53;99969.91;;;13.06;100.00
41254;BME280;26987;59.928;30.306;2023-07-29T00:27:23;100006.31;;;13.26;100.00
41254;BME280;26987;59.928;30.306;2023-07-29T00:29:51;100011.34;;;13.22;100.00
41254;BME280;26987;59.928;30.306;2023-07-29T00:32:19;100003.34;;;13.10;100.00
41254;BME280;26987;59.928;30.306;2023-07-29T00:34:47;100009.97;;;13.20;100.00
41254;BME280;26987;59.928;30.306;2023-07-29T00:37:15;99995.03;;;13.12;100.00
41254;BME280;26987;59.928;30.306;2023-07-29T00:39:47;100008.25;;;13.14;100.00
41254;BME280;26987;59.928;30.306;2023-07-29T00:42:15;100006.63;;;13.12;100.00
41254;BME280;26987;59.928;30.306;2023-07-29T00:44:43;100016.66;;;13.17;100.00
41254;BME280;26987;59.928;30.306;2023-07-29T00:47:11;100016.91;;;13.16;100.00
41254;BME280;26987;59.928;30.306;2023-07-29T00:49:40;100013.72;;;13.19;100.00
41254;BME280;26987;59.928;30.306;2023-07-29T00:52:08;100025.03;;;13.21;100.00
41254;BME280;26987;59.928;30.306;2023-07-29T00:54:38;100017.22;;;13.19;100.00
41254;BME280;26987;59.928;30.306;2023-07-29T00:57:08;100025.88;;;13.21;100.00
41254;BME280;26987;59.928;30.306;2023-07-29T00:59:37;100029.63;;;13.20;100.00
41254;BME280;26987;59.928;30.306;2023-07-29T01:02:06;100028.50;;;13.16;100.00
41254;BME280;26987;59.928;30.306;2023-07-29T01:04:34;100029.03;;;13.18;100.00
41254;BME280;26987;59.928;30.306;2023-07-29T01:07:09;100015.41;;;13.08;100.00
41254;BME280;26987;59.928;30.306;2023-07-29T01:09:48;100034.34;;;13.13;100.00
41254;BME280;26987;59.928;30.306;2023-07-29T01:12:23;100041.72;;;13.06;100.00
41254;BME280;26987;59.928;30.306;2023-07-29T01:14:59;100048.19;;;13.05;100.00
41254;BME280;26987;59.928;30.306;2023-07-29T01:17:33;100015.03;;;12.87;100.00
41254;BME280;26987;59.928;30.306;2023-07-29T01:20:07;100041.06;;;12.98;100.00
41254;BME280;26987;59.928;30.306;2023-07-29T01:22:36;100052.41;;;13.01;100.00
41254;BME280;26987;59.928;30.306;2023-07-29T01:25:08;100040.75;;;12.95;100.00
41254;BME280;26987;59.928;30.306;2023-07-29T01:27:36;100033.16;;;12.92;100.00
41254;BME280;26987;59.928;30.306;2023-07-29T01:30:05;100041.78;;;12.94;100.00
41254;BME280;26987;59.928;30.306;2023-07-29T01:32:38;100047.50;;;12.97;100.00
41254;BME280;26987;59.928;30.306;2023-07-29T01:35:15;100050.78;;;12.99;100.00
41254;BME280;26987;59.928;30.306;2023-07-29T01:37:47;100042.97;;;12.98;100.00
41254;BME280;26987;59.928;30.306;2023-07-29T01:40:18;100050.19;;;12.97;100.00
41254;BME280;26987;59.928;30.306;2023-07-29T01:42:46;100044.22;;;12.95;100.00
41254;BME280;26987;59.928;30.306;2023-07-29T01:45:14;100043.44;;;12.95;100.00
41254;BME280;26987;59.928;30.306;2023-07-29T01:47:43;100060.06;;;12.92;100.00
41254;BME280;26987;59.928;30.306;2023-07-29T01:50:11;100056.41;;;12.98;100.00
41254;BME280;26987;59.928;30.306;2023-07-29T01:52:39;100057.22;;;12.98;100.00
41254;BME280;26987;59.928;30.306;2023-07-29T01:55:07;100058.94;;;13.05;100.00
41254;BME280;26987;59.928;30.306;2023-07-29T01:57:37;100053.09;;;13.08;100.00
41254;BME280;26987;59.928;30.306;2023-07-29T02:00:06;100051.53;;;13.12;100.00
41254;BME280;26987;59.928;30.306;2023-07-29T02:02:40;100052.13;;;13.14;100.00
41254;BME280;26987;59.928;30.306;2023-07-29T02:05:08;100046.50;;;13.16;100.00
41254;BME280;26987;59.928;30.306;2023-07-29T02:07:36;100055.41;;;13.16;100.00
41254;BME280;26987;59.928;30.306;2023-07-29T02:10:05;100052.72;;;13.16;100.00
41254;BME280;26987;59.928;30.306;2023-07-29T02:12:33;100051.25;;;13.25;100.00
41254;BME280;26987;59.928;30.306;2023-07-29T02:15:04;100052.50;;;13.35;100.00
41254;BME280;26987;59.928;30.306;2023-07-29T02:17:33;100054.31;;;13.46;100.00
41254;BME280;26987;59.928;30.306;2023-07-29T02:20:01;100062.75;;;13.50;100.00
41254;BME280;26987;59.928;30.306;2023-07-29T02:22:30;100061.44;;;13.53;100.00
41254;BME280;26987;59.928;30.306;2023-07-29T02:24:57;100064.88;;;13.65;100.00
41254;BME280;26987;59.928;30.306;2023-07-29T02:27:25;100073.88;;;13.88;100.00
41254;BME280;26987;59.928;30.306;2023-07-29T02:29:54;100055.50;;;14.02;100.00
41254;BME280;26987;59.928;30.306;2023-07-29T02:32:23;100074.56;;;14.35;97.95
41254;BME280;26987;59.928;30.306;2023-07-29T02:34:51;100074.84;;;14.56;96.43
41254;BME280;26987;59.928;30.306;2023-07-29T02:37:19;100083.78;;;14.79;95.49
41254;BME280;26987;59.928;30.306;2023-07-29T02:39:47;100073.13;;;14.89;93.91
41254;BME280;26987;59.928;30.306;2023-07-29T02:42:15;100083.16;;;15.21;92.38
41254;BME280;26987;59.928;30.306;2023-07-29T02:44:43;100070.75;;;15.81;89.18
41254;BME280;26987;59.928;30.306;2023-07-29T02:47:11;100082.91;;;16.64;84.73
41254;BME280;26987;59.928;30.306;2023-07-29T02:49:40;100076.94;;;17.37;80.47
41254;BME280;26987;59.928;30.306;2023-07-29T02:52:08;100078.28;;;17.97;76.82
41254;BME280;26987;59.928;30.306;2023-07-29T02:54:36;100087.50;;;18.37;74.59
41254;BME280;26987;59.928;30.306;2023-07-29T02:57:04;100089.19;;;18.94;71.97
41254;BME280;26987;59.928;30.306;2023-07-29T02:59:32;100075.56;;;18.99;71.08
41254;BME280;26987;59.928;30.306;2023-07-29T03:02:00;100088.38;;;18.94;71.61
41254;BME280;26987;59.928;30.306;2023-07-29T03:04:28;100099.03;;;18.80;71.64
41254;BME280;26987;59.928;30.306;2023-07-29T03:06:57;100106.72;;;18.51;72.79
41254;BME280;26987;59.928;30.306;2023-07-29T03:09:25;100106.25;;;18.18;73.64
41254;BME280;26987;59.928;30.306;2023-07-29T03:11:53;100099.19;;;17.70;74.96
41254;BME280;26987;59.928;30.306;2023-07-29T03:14:21;100103.25;;;17.47;76.40
41254;BME280;26987;59.928;30.306;2023-07-29T03:16:49;100107.25;;;17.23;77.33
41254;BME280;26987;59.928;30.306;2023-07-29T03:19:17;100107.94;;;16.98;78.57
41254;BME280;26987;59.928;30.306;2023-07-29T03:21:45;100100.66;;;17.03;78.91
41254;BME280;26987;59.928;30.306;2023-07-29T03:24:14;100108.66;;;17.52;77.47
41254;BME280;26987;59.928;30.306;2023-07-29T03:26:42;100093.47;;;18.08;74.29
41254;BME280;26987;59.928;30.306;2023-07-29T03:29:10;100110.91;;;18.89;71.29
41254;BME280;26987;59.928;30.306;2023-07-29T03:31:38;100106.78;;;19.52;68.66
41254;BME280;26987;59.928;30.306;2023-07-29T03:34:06;100112.44;;;20.01;66.42
41254;BME280;26987;59.928;30.306;2023-07-29T03:36:34;100098.28;;;20.53;64.20
41254;BME280;26987;59.928;30.306;2023-07-29T03:39:02;100084.56;;;21.27;60.74
41254;BME280;26987;59.928;30.306;2023-07-29T03:41:32;100107.13;;;22.33;57.38
41254;BME280;26987;59.928;30.306;2023-07-29T03:44:00;100102.69;;;22.51;55.73
41254;BME280;26987;59.928;30.306;2023-07-29T03:46:27;100098.81;;;22.10;56.59
41254;BME280;26987;59.928;30.306;2023-07-29T03:48:55;100107.00;;;21.76;57.75
41254;BME280;26987;59.928;30.306;2023-07-29T03:51:23;100107.78;;;21.96;57.54
41254;BME280;26987;59.928;30.306;2023-07-29T03:53:52;100117.50;;;22.64;54.55
41254;BME280;26987;59.928;30.306;2023-07-29T03:56:19;100103.72;;;23.34;51.67
41254;BME280;26987;59.928;30.306;2023-07-29T03:58:49;100116.72;;;24.20;49.76
41254;BME280;26987;59.928;30.306;2023-07-29T04:01:17;100119.91;;;25.03;46.99
41254;BME280;26987;59.928;30.306;2023-07-29T04:03:45;100109.28;;;25.64;45.15
41254;BME280;26987;59.928;30.306;2023-07-29T04:06:14;100110.69;;;25.88;43.67
41254;BME280;26987;59.928;30.306;2023-07-29T04:08:43;100106.03;;;25.79;42.72
41254;BME280;26987;59.928;30.306;2023-07-29T04:11:11;100112.13;;;25.94;42.65
41254;BME280;26987;59.928;30.306;2023-07-29T04:13:39;100121.25;;;26.34;41.47
41254;BME280;26987;59.928;30.306;2023-07-29T04:16:08;100124.41;;;26.83;40.30
41254;BME280;26987;59.928;30.306;2023-07-29T04:18:36;100128.13;;;26.79;40.15
41254;BME280;26987;59.928;30.306;2023-07-29T04:21:04;100121.03;;;27.29;39.15
41254;BME280;26987;59.928;30.306;2023-07-29T04:23:32;100116.59;;;27.16;38.96
41254;BME280;26987;59.928;30.306;2023-07-29T04:26:00;100124.41;;;26.53;39.84
41254;BME280;26987;59.928;30.306;2023-07-29T04:28:28;100115.41;;;25.78;41.13
41254;BME280;26987;59.928;30.306;2023-07-29T04:30:55;100087.00;;;25.56;41.66
41254;BME280;26987;59.928;30.306;2023-07-29T04:33:25;100115.72;;;26.42;40.85
41254;BME280;26987;59.928;30.306;2023-07-29T04:35:52;100110.84;;;26.78;39.70
41254;BME280;26987;59.928;30.306;2023-07-29T04:38:20;100105.94;;;26.54;40.03
41254;BME280;26987;59.928;30.306;2023-07-29T04:40:48;100106.00;;;26.75;39.71
41254;BME280;26987;59.928;30.306;2023-07-29T04:43:16;100109.88;;;27.47;38.41
41254;BME280;26987;59.928;30.306;2023-07-29T04:45:44;100116.31;;;27.51;38.15
41254;BME280;26987;59.928;30.306;2023-07-29T04:48:12;100106.72;;;27.57;38.06
41254;BME280;26987;59.928;30.306;2023-07-29T04:50:41;100118.53;;;27.37;38.76
41254;BME280;26987;59.928;30.306;2023-07-29T04:53:09;100113.16;;;27.19;38.84
41254;BME280;26987;59.928;30.306;2023-07-29T04:55:37;100084.84;;;27.40;38.08
41254;BME280;26987;59.928;30.306;2023-07-29T04:58:05;100117.28;;;27.89;37.70
41254;BME280;26987;59.928;30.306;2023-07-29T05:00:33;100114.94;;;28.38;36.75
41254;BME280;26987;59.928;30.306;2023-07-29T05:03:01;100123.66;;;28.77;36.05
41254;BME280;26987;59.928;30.306;2023-07-29T05:05:29;100114.00;;;28.83;35.75
41254;BME280;26987;59.928;30.306;2023-07-29T05:07:59;100109.09;;;29.30;35.18
41254;BME280;26987;59.928;30.306;2023-07-29T05:10:26;100106.56;;;29.54;34.43
41254;BME280;26987;59.928;30.306;2023-07-29T05:12:54;100106.44;;;30.24;32.99
41254;BME280;26987;59.928;30.306;2023-07-29T05:15:22;100108.44;;;30.59;32.43
41254;BME280;26987;59.928;30.306;2023-07-29T05:17:51;100107.13;;;30.53;32.61
41254;BME280;26987;59.928;30.306;2023-07-29T05:20:19;100110.31;;;30.71;32.44
41254;BME280;26987;59.928;30.306;2023-07-29T05:22:46;100118.16;;;31.05;31.86
41254;BME280;26987;59.928;30.306;2023-07-29T05:25:16;100124.13;;;31.43;31.48
41254;BME280;26987;59.928;30.306;2023-07-29T05:27:44;100110.81;;;31.13;31.62
41254;BME280;26987;59.928;30.306;2023-07-29T05:30:11;100113.47;;;31.45;31.55
41254;BME280;26987;59.928;30.306;2023-07-29T05:32:39;100110.78;;;31.49;31.05
41254;BME280;26987;59.928;30.306;2023-07-29T05:35:08;100106.38;;;31.67;30.90
41254;BME280;26987;59.928;30.306;2023-07-29T05:37:38;100114.13;;;31.81;30.83
41254;BME280;26987;59.928;30.306;2023-07-29T05:40:07;100106.47;;;32.18;30.21
41254;BME280;26987;59.928;30.306;2023-07-29T05:42:36;100110.47;;;32.20;30.19
41254;BME280;26987;59.928;30.306;2023-07-29T05:45:05;100106.41;;;32.41;29.55
41254;BME280;26987;59.928;30.306;2023-07-29T05:47:33;100111.25;;;31.34;31.00
41254;BME280;26987;59.928;30.306;2023-07-29T05:50:01;100096.22;;;29.51;33.98
41254;BME280;26987;59.928;30.306;2023-07-29T05:52:31;100085.09;;;28.40;35.67
41254;BME280;26987;59.928;30.306;2023-07-29T05:55:02;100089.84;;;27.93;37.37
41254;BME280;26987;59.928;30.306;2023-07-29T05:57:31;100091.88;;;27.83;37.15
41254;BME280;26987;59.928;30.306;2023-07-29T06:00:00;100090.63;;;27.60;37.71
41254;BME280;26987;59.928;30.306;2023-07-29T06:02:29;100097.22;;;28.26;36.94
41254;BME280;26987;59.928;30.306;2023-07-29T06:04:57;100089.56;;;28.32;36.25
41254;BME280;26987;59.928;30.306;2023-07-29T06:07:26;100100.31;;;29.00;35.03
41254;BME280;26987;59.928;30.306;2023-07-29T06:09:56;100091.91;;;30.11;33.80
41254;BME280;26987;59.928;30.306;2023-07-29T06:12:24;100090.94;;;30.87;32.07
41254;BME280;26987;59.928;30.306;2023-07-29T06:14:52;100088.16;;;31.46;31.39
41254;BME280;26987;59.928;30.306;2023-07-29T06:17:21;100069.38;;;31.36;30.88
41254;BME280;26987;59.928;30.306;2023-07-29T06:19:49;100098.16;;;31.51;30.48
41254;BME280;26987;59.928;30.306;2023-07-29T06:22:17;100092.84;;;31.42;31.20
41254;BME280;26987;59.928;30.306;2023-07-29T06:24:45;100092.91;;;31.66;30.98
41254;BME280;26987;59.928;30.306;2023-07-29T06:27:13;100090.84;;;32.06;30.01
41254;BME280;26987;59.928;30.306;2023-07-29T06:29:40;100081.19;;;31.96;30.16
41254;BME280;26987;59.928;30.306;2023-07-29T06:32:08;100083.25;;;32.26;29.95
41254;BME280;26987;59.928;30.306;2023-07-29T06:34:38;100074.16;;;32.29;29.80
41254;BME280;26987;59.928;30.306;2023-07-29T06:37:06;100074.94;;;32.26;29.32
41254;BME280;26987;59.928;30.306;2023-07-29T06:39:33;100059.97;;;32.07;29.20
41254;BME280;26987;59.928;30.306;2023-07-29T06:42:02;100061.00;;;31.76;29.76
41254;BME280;26987;59.928;30.306;2023-07-29T06:44:30;100064.63;;;31.56;30.29
41254;BME280;26987;59.928;30.306;2023-07-29T06:46:58;100058.38;;;31.00;30.70
41254;BME280;26987;59.928;30.306;2023-07-29T06:49:25;100071.03;;;31.21;30.21
41254;BME280;26987;59.928;30.306;2023-07-29T06:51:55;100070.41;;;31.28;30.56
41254;BME280;26987;59.928;30.306;2023-07-29T06:54:24;100070.75;;;31.06;30.88
41254;BME280;26987;59.928;30.306;2023-07-29T06:56:52;100071.00;;;30.62;30.93
41254;BME280;26987;59.928;30.306;2023-07-29T06:59:20;100058.28;;;30.41;30.92
41254;BME280;26987;59.928;30.306;2023-07-29T07:01:48;100055.78;;;30.03;31.94
41254;BME280;26987;59.928;30.306;2023-07-29T07:04:16;100060.34;;;30.12;31.49
41254;BME280;26987;59.928;30.306;2023-07-29T07:06:44;100049.63;;;29.78;32.36
41254;BME280;26987;59.928;30.306;2023-07-29T07:09:13;100042.66;;;29.23;34.03
41254;BME280;26987;59.928;30.306;2023-07-29T07:11:41;100057.72;;;28.72;34.91
41254;BME280;26987;59.928;30.306;2023-07-29T07:14:09;100057.16;;;28.29;35.27
41254;BME280;26987;59.928;30.306;2023-07-29T07:16:36;100043.72;;;28.02;36.49
41254;BME280;26987;59.928;30.306;2023-07-29T07:19:05;100035.34;;;27.86;36.89
41254;BME280;26987;59.928;30.306;2023-07-29T07:21:33;100031.69;;;27.48;37.43
41254;BME280;26987;59.928;30.306;2023-07-29T07:24:01;100037.34;;;27.30;37.58
41254;BME280;26987;59.928;30.306;2023-07-29T07:26:30;100040.63;;;26.81;38.09
41254;BME280;26987;59.928;30.306;2023-07-29T07:28:58;100037.22;;;26.32;39.24
41254;BME280;26987;59.928;30.306;2023-07-29T07:31:26;100033.72;;;25.75;40.02
41254;BME280;26987;59.928;30.306;2023-07-29T07:33:53;100038.94;;;25.32;40.64
41254;BME280;26987;59.928;30.306;2023-07-29T07:36:21;99997.66;;;25.02;41.25
41254;BME280;26987;59.928;30.306;2023-07-29T07:38:49;100029.91;;;24.97;41.81
41254;BME280;26987;59.928;30.306;2023-07-29T07:41:17;100033.25;;;24.76;43.01
41254;BME280;26987;59.928;30.306;2023-07-29T07:43:46;100041.94;;;24.60;43.68
41254;BME280;26987;59.928;30.306;2023-07-29T07:46:14;100038.88;;;24.12;44.82
41254;BME280;26987;59.928;30.306;2023-07-29T07:48:42;100042.38;;;23.72;45.77
41254;BME280;26987;59.928;30.306;2023-07-29T07:51:10;100043.13;;;23.41;46.11
41254;BME280;26987;59.928;30.306;2023-07-29T07:53:39;100033.25;;;23.31;46.09
41254;BME280;26987;59.928;30.306;2023-07-29T07:56:07;100028.38;;;23.28;46.66
41254;BME280;26987;59.928;30.306;2023-07-29T07:58:35;100034.28;;;23.21;46.29
41254;BME280;26987;59.928;30.306;2023-07-29T08:01:04;100016.88;;;23.17;46.39
41254;BME280;26987;59.928;30.306;2023-07-29T08:03:33;100014.41;;;23.29;46.31
41254;BME280;26987;59.928;30.306;2023-07-29T08:06:01;100027.34;;;23.38;45.84
41254;BME280;26987;59.928;30.306;2023-07-29T08:08:29;100035.81;;;23.50;46.39
41254;BME280;26987;59.928;30.306;2023-07-29T08:10:57;100020.03;;;23.47;45.97
41254;BME280;26987;59.928;30.306;2023-07-29T08:13:25;100030.69;;;23.35;46.03
41254;BME280;26987;59.928;30.306;2023-07-29T08:15:53;100028.13;;;23.15;46.42
41254;BME280;26987;59.928;30.306;2023-07-29T08:18:22;100032.22;;;23.04;47.01
41254;BME280;26987;59.928;30.306;2023-07-29T08:20:53;100031.56;;;22.84;45.93
41254;BME280;26987;59.928;30.306;2023-07-29T08:23:21;100030.72;;;22.98;46.22
41254;BME280;26987;59.928;30.306;2023-07-29T08:25:53;100033.50;;;23.21;45.81
41254;BME280;26987;59.928;30.306;2023-07-29T08:28:22;100025.69;;;23.51;45.74
41254;BME280;26987;59.928;30.306;2023-07-29T08:30:50;100018.59;;;23.50;45.44
41254;BME280;26987;59.928;30.306;2023-07-29T08:33:18;100011.91;;;23.65;45.30
41254;BME280;26987;59.928;30.306;2023-07-29T08:35:47;100021.38;;;23.90;44.81
41254;BME280;26987;59.928;30.306;2023-07-29T08:38:15;100010.03;;;23.74;45.09
41254;BME280;26987;59.928;30.306;2023-07-29T08:40:45;100025.25;;;23.89;45.52
41254;BME280;26987;59.928;30.306;2023-07-29T08:43:19;100016.75;;;23.68;45.38
41254;BME280;26987;59.928;30.306;2023-07-29T08:45:47;100027.28;;;23.75;45.34
41254;BME280;26987;59.928;30.306;2023-07-29T08:48:20;100017.00;;;23.80;45.54
41254;BME280;26987;59.928;30.306;2023-07-29T08:51:08;100035.56;;;24.24;44.71
41254;BME280;26987;59.928;30.306;2023-07-29T08:53:37;100014.50;;;24.34;44.06
41254;BME280;26987;59.928;30.306;2023-07-29T08:56:06;100036.41;;;24.34;44.28
41254;BME280;26987;59.928;30.306;2023-07-29T08:58:34;100016.38;;;24.15;44.80
41254;BME280;26987;59.928;30.306;2023-07-29T09:01:02;100025.56;;;24.28;44.80
41254;BME280;26987;59.928;30.306;2023-07-29T09:03:30;100014.97;;;24.04;44.88
41254;BME280;26987;59.928;30.306;2023-07-29T09:05:58;100026.56;;;24.01;44.76
41254;BME280;26987;59.928;30.306;2023-07-29T09:08:28;100028.31;;;23.97;45.62
41254;BME280;26987;59.928;30.306;2023-07-29T09:10:56;100021.34;;;23.81;44.42
41254;BME280;26987;59.928;30.306;2023-07-29T09:13:24;100020.31;;;23.68;44.71
41254;BME280;26987;59.928;30.306;2023-07-29T09:15:54;100013.72;;;23.69;45.44
41254;BME280;26987;59.928;30.306;2023-07-29T09:18:23;100020.63;;;23.44;45.64
41254;BME280;26987;59.928;30.306;2023-07-29T09:20:53;100013.59;;;23.29;45.97
41254;BME280;26987;59.928;30.306;2023-07-29T09:23:21;100011.97;;;23.28;46.44
41254;BME280;26987;59.928;30.306;2023-07-29T09:25:50;100015.91;;;23.36;46.43
41254;BME280;26987;59.928;30.306;2023-07-29T09:28:19;100014.25;;;23.35;47.11
41254;BME280;26987;59.928;30.306;2023-07-29T09:30:47;100000.38;;;23.45;47.52
41254;BME280;26987;59.928;30.306;2023-07-29T09:33:18;100012.69;;;23.56;47.26
41254;BME280;26987;59.928;30.306;2023-07-29T09:35:45;100011.06;;;23.55;47.15
41254;BME280;26987;59.928;30.306;2023-07-29T09:38:14;99986.34;;;23.15;48.18
41254;BME280;26987;59.928;30.306;2023-07-29T09:40:42;100006.19;;;23.06;47.51
41254;BME280;26987;59.928;30.306;2023-07-29T09:43:12;100022.19;;;23.13;47.44
41254;BME280;26987;59.928;30.306;2023-07-29T09:45:46;100018.13;;;23.11;47.03
41254;BME280;26987;59.928;30.306;2023-07-29T09:48:14;100013.34;;;23.16;46.74
41254;BME280;26987;59.928;30.306;2023-07-29T09:50:41;100006.53;;;23.28;45.93
41254;BME280;26987;59.928;30.306;2023-07-29T09:53:10;100023.84;;;23.23;45.58
41254;BME280;26987;59.928;30.306;2023-07-29T09:55:38;100010.53;;;23.30;46.00
41254;BME280;26987;59.928;30.306;2023-07-29T09:58:06;100015.41;;;23.34;45.45
41254;BME280;26987;59.928;30.306;2023-07-29T10:00:35;100022.47;;;23.35;45.26
41254;BME280;26987;59.928;30.306;2023-07-29T10:03:04;100013.91;;;23.27;45.70
41254;BME280;26987;59.928;30.306;2023-07-29T10:05:33;100020.38;;;23.09;46.00
41254;BME280;26987;59.928;30.306;2023-07-29T10:08:02;100023.59;;;22.74;46.89
41254;BME280;26987;59.928;30.306;2023-07-29T10:10:31;100014.81;;;22.35;47.78
41254;BME280;26987;59.928;30.306;2023-07-29T10:13:00;100023.72;;;22.26;48.41
41254;BME280;26987;59.928;30.306;2023-07-29T10:15:29;100031.50;;;22.19;49.16
41254;BME280;26987;59.928;30.306;2023-07-29T10:17:59;100038.06;;;22.46;48.59
41254;BME280;26987;59.928;30.306;2023-07-29T10:20:27;100028.75;;;22.75;48.08
41254;BME280;26987;59.928;30.306;2023-07-29T10:22:56;100023.22;;;23.03;48.21
41254;BME280;26987;59.928;30.306;2023-07-29T10:25:31;100029.56;;;23.36;47.78
41254;BME280;26987;59.928;30.306;2023-07-29T10:28:05;100030.63;;;23.26;48.18
41254;BME280;26987;59.928;30.306;2023-07-29T10:30:33;100022.63;;;22.92;48.49
41254;BME280;26987;59.928;30.306;2023-07-29T10:33:04;100022.00;;;22.73;49.38
41254;BME280;26987;59.928;30.306;2023-07-29T10:35:33;100020.50;;;22.66;50.09
41254;BME280;26987;59.928;30.306;2023-07-29T10:38:01;100020.81;;;22.88;50.12
41254;BME280;26987;59.928;30.306;2023-07-29T10:40:44;100020.50;;;23.26;49.25
41254;BME280;26987;59.928;30.306;2023-07-29T10:43:14;100018.06;;;23.25;48.97
41254;BME280;26987;59.928;30.306;2023-07-29T10:45:47;100017.44;;;23.42;47.90
41254;BME280;26987;59.928;30.306;2023-07-29T10:48:39;100021.88;;;23.92;47.80
41254;BME280;26987;59.928;30.306;2023-07-29T10:51:27;99978.59;;;23.63;47.90
41254;BME280;26987;59.928;30.306;2023-07-29T10:53:57;100011.56;;;23.58;48.16
41254;BME280;26987;59.928;30.306;2023-07-29T10:56:29;99935.13;;;23.06;48.46
41254;BME280;26987;59.928;30.306;2023-07-29T10:59:02;100000.75;;;23.52;48.08
41254;BME280;26987;59.928;30.306;2023-07-29T11:01:31;100012.78;;;23.51;48.29
41254;BME280;26987;59.928;30.306;2023-07-29T11:04:25;100006.91;;;23.58;48.96
41254;BME280;26987;59.928;30.306;2023-07-29T11:07:26;100017.00;;;23.80;47.98
41254;BME280;26987;59.928;30.306;2023-07-29T11:09:56;100009.78;;;23.62;47.51
41254;BME280;26987;59.928;30.306;2023-07-29T11:12:40;100038.06;;;24.12;46.56
41254;BME280;26987;59.928;30.306;2023-07-29T11:15:23;99945.03;;;23.48;45.26
41254;BME280;26987;59.928;30.306;2023-07-29T11:17:52;99989.03;;;23.61;44.59
41254;BME280;26987;59.928;30.306;2023-07-29T11:20:23;100019.44;;;23.91;44.44
41254;BME280;26987;59.928;30.306;2023-07-29T11:22:52;100008.50;;;23.91;44.11
41254;BME280;26987;59.928;30.306;2023-07-29T11:25:21;100014.31;;;23.98;43.86
41254;BME280;26987;59.928;30.306;2023-07-29T11:27:51;100018.81;;;23.94;43.51
41254;BME280;26987;59.928;30.306;2023-07-29T11:30:19;100001.66;;;23.71;43.36
41254;BME280;26987;59.928;30.306;2023-07-29T11:32:47;100012.47;;;23.53;43.96
41254;BME280;26987;59.928;30.306;2023-07-29T11:35:16;100004.25;;;23.30;44.26
41254;BME280;26987;59.928;30.306;2023-07-29T11:37:47;100007.81;;;23.08;45.14
41254;BME280;26987;59.928;30.306;2023-07-29T11:40:16;100011.91;;;22.96;46.44
41254;BME280;26987;59.928;30.306;2023-07-29T11:42:44;99938.41;;;22.72;46.45
41254;BME280;26987;59.928;30.306;2023-07-29T11:45:13;99993.41;;;23.16;46.85
41254;BME280;26987;59.928;30.306;2023-07-29T11:47:41;99997.78;;;23.03;45.88
41254;BME280;26987;59.928;30.306;2023-07-29T11:50:10;100013.19;;;22.99;46.40
41254;BME280;26987;59.928;30.306;2023-07-29T11:52:41;100004.13;;;22.89;46.56
41254;BME280;26987;59.928;30.306;2023-07-29T11:55:12;100011.94;;;22.82;46.11
41254;BME280;26987;59.928;30.306;2023-07-29T11:57:41;100007.38;;;22.77;44.85
41254;BME280;26987;59.928;30.306;2023-07-29T12:00:10;99994.31;;;22.88;45.50
41254;BME280;26987;59.928;30.306;2023-07-29T12:02:41;99994.75;;;23.04;45.26
41254;BME280;26987;59.928;30.306;2023-07-29T12:05:10;100002.34;;;23.08;43.97
41254;BME280;26987;59.928;30.306;2023-07-29T12:07:39;100003.81;;;22.91;43.67
41254;BME280;26987;59.928;30.306;2023-07-29T12:10:10;100015.88;;;22.90;43.75
41254;BME280;26987;59.928;30.306;2023-07-29T12:12:44;99980.81;;;22.69;44.36
41254;BME280;26987;59.928;30.306;2023-07-29T12:15:12;100018.25;;;22.54;46.12
41254;BME280;26987;59.928;30.306;2023-07-29T12:17:41;100015.25;;;22.14;48.89
41254;BME280;26987;59.928;30.306;2023-07-29T12:20:10;99982.28;;;21.82;49.10
41254;BME280;26987;59.928;30.306;2023-07-29T12:22:38;100022.72;;;22.22;49.02
41254;BME280;26987;59.928;30.306;2023-07-29T12:25:06;100021.06;;;22.35;49.66
41254;BME280;26987;59.928;30.306;2023-07-29T12:27:36;100022.09;;;22.25;50.06
41254;BME280;26987;59.928;30.306;2023-07-29T12:30:05;100026.75;;;22.11;49.29
41254;BME280;26987;59.928;30.306;2023-07-29T12:32:33;100019.25;;;22.02;48.21
41254;BME280;26987;59.928;30.306;2023-07-29T12:35:10;100019.47;;;21.92;47.50
41254;BME280;26987;59.928;30.306;2023-07-29T12:37:38;100009.84;;;21.80;48.05
41254;BME280;26987;59.928;30.306;2023-07-29T12:40:20;100020.56;;;21.91;49.08
41254;BME280;26987;59.928;30.306;2023-07-29T12:42:51;100021.38;;;21.77;49.52
41254;BME280;26987;59.928;30.306;2023-07-29T12:45:19;100007.56;;;21.68;50.04
41254;BME280;26987;59.928;30.306;2023-07-29T12:50:16;100013.75;;;21.74;51.08